sensor_id;sensor_type;location;lat;lon;timestamp;P1;durP1;ratioP1;P2;durP2;ratioP2
37288;SDS011;23174;49.462;11.000;2023-02-28T00:02:00;2.40;;;2.20;;
37288;SDS011;23174;49.462;11.000;2023-02-28T00:04:01;2.88;;;2.45;;
37288;SDS011;23174;49.462;11.000;2023-02-28T00:06:02;3.80;;;2.88;;
37288;SDS011;23174;49.462;11.000;2023-02-28T00:08:04;4.05;;;2.50;;
37288;SDS011;23174;49.462;11.000;2023-02-28T00:10:06;3.20;;;2.38;;
37288;SDS011;23174;49.462;11.000;2023-02-28T00:12:08;2.80;;;2.33;;
37288;SDS011;23174;49.462;11.000;2023-02-28T00:14:10;3.97;;;2.20;;
37288;SDS011;23174;49.462;11.000;2023-02-28T00:16:11;2.08;;;1.88;;
37288;SDS011;23174;49.462;11.000;2023-02-28T00:18:13;2.80;;;2.60;;
37288;SDS011;23174;49.462;11.000;2023-02-28T00:20:14;3.25;;;2.17;;
37288;SDS011;23174;49.462;11.000;2023-02-28T00:22:16;2.63;;;2.05;;
37288;SDS011;23174;49.462;11.000;2023-02-28T00:24:17;2.38;;;2.00;;
37288;SDS011;23174;49.462;11.000;2023-02-28T00:26:18;3.60;;;2.20;;
37288;SDS011;23174;49.462;11.000;2023-02-28T00:28:19;2.78;;;2.08;;
37288;SDS011;23174;49.462;11.000;2023-02-28T00:30:21;2.40;;;2.08;;
37288;SDS011;23174;49.462;11.000;2023-02-28T00:32:23;2.38;;;2.17;;
37288;SDS011;23174;49.462;11.000;2023-02-28T00:34:23;2.38;;;2.15;;
37288;SDS011;23174;49.462;11.000;2023-02-28T00:36:24;3.38;;;2.40;;
37288;SDS011;23174;49.462;11.000;2023-02-28T00:38:25;3.92;;;2.22;;
37288;SDS011;23174;49.462;11.000;2023-02-28T00:40:25;2.35;;;2.15;;
37288;SDS011;23174;49.462;11.000;2023-02-28T00:42:26;2.40;;;2.20;;
37288;SDS011;23174;49.462;11.000;2023-02-28T00:44:27;2.88;;;1.90;;
37288;SDS011;23174;49.462;11.000;2023-02-28T00:46:28;2.78;;;2.20;;
37288;SDS011;23174;49.462;11.000;2023-02-28T00:48:28;2.03;;;1.92;;
37288;SDS011;23174;49.462;11.000;2023-02-28T00:50:29;3.00;;;2.30;;
37288;SDS011;23174;49.462;11.000;2023-02-28T00:52:30;2.50;;;2.30;;
37288;SDS011;23174;49.462;11.000;2023-02-28T00:54:30;2.30;;;2.10;;
37288;SDS011;23174;49.462;11.000;2023-02-28T00:56:31;2.00;;;1.90;;
37288;SDS011;23174;49.462;11.000;2023-02-28T00:58:32;3.13;;;2.35;;
37288;SDS011;23174;49.462;11.000;2023-02-28T01:00:32;2.50;;;2.30;;
37288;SDS011;23174;49.462;11.000;2023-02-28T01:02:33;2.53;;;2.33;;
37288;SDS011;23174;49.462;11.000;2023-02-28T01:04:35;2.38;;;2.15;;
37288;SDS011;23174;49.462;11.000;2023-02-28T01:06:35;2.40;;;2.20;;
37288;SDS011;23174;49.462;11.000;2023-02-28T01:08:36;3.10;;;2.90;;
37288;SDS011;23174;49.462;11.000;2023-02-28T01:10:37;2.38;;;2.13;;
37288;SDS011;23174;49.462;11.000;2023-02-28T01:12:38;2.10;;;2.00;;
37288;SDS011;23174;49.462;11.000;2023-02-28T01:14:38;2.78;;;2.40;;
37288;SDS011;23174;49.462;11.000;2023-02-28T01:16:39;2.35;;;2.15;;
37288;SDS011;23174;49.462;11.000;2023-02-28T01:18:40;2.40;;;2.20;;
37288;SDS011;23174;49.462;11.000;2023-02-28T01:20:41;3.03;;;2.60;;
37288;SDS011;23174;49.462;11.000;2023-02-28T01:22:41;2.72;;;2.25;;
37288;SDS011;23174;49.462;11.000;2023-02-28T01:24:42;2.60;;;2.40;;
37288;SDS011;23174;49.462;11.000;2023-02-28T01:26:42;2.67;;;2.38;;
37288;SDS011;23174;49.462;11.000;2023-02-28T01:28:43;2.42;;;2.22;;
37288;SDS011;23174;49.462;11.000;2023-02-28T01:30:47;2.55;;;2.13;;
37288;SDS011;23174;49.462;11.000;2023-02-28T01:32:48;3.58;;;2.28;;
37288;SDS011;23174;49.462;11.000;2023-02-28T01:34:51;2.28;;;2.08;;
37288;SDS011;23174;49.462;11.000;2023-02-28T01:36:51;2.83;;;2.60;;
37288;SDS011;23174;49.462;11.000;2023-02-28T01:38:52;2.45;;;2.03;;
37288;SDS011;23174;49.462;11.000;2023-02-28T01:40:53;4.50;;;2.60;;
37288;SDS011;23174;49.462;11.000;2023-02-28T01:42:54;2.35;;;2.15;;
37288;SDS011;23174;49.462;11.000;2023-02-28T01:44:57;3.42;;;2.40;;
37288;SDS011;23174;49.462;11.000;2023-02-28T01:46:59;2.92;;;2.40;;
37288;SDS011;23174;49.462;11.000;2023-02-28T01:49:02;2.33;;;2.15;;
37288;SDS011;23174;49.462;11.000;2023-02-28T01:51:18;2.80;;;2.60;;
37288;SDS011;23174;49.462;11.000;2023-02-28T01:53:24;2.70;;;2.45;;
37288;SDS011;23174;49.462;11.000;2023-02-28T01:55:30;3.30;;;2.70;;
37288;SDS011;23174;49.462;11.000;2023-02-28T01:57:34;2.45;;;2.25;;
37288;SDS011;23174;49.462;11.000;2023-02-28T02:01:51;3.33;;;2.50;;
37288;SDS011;23174;49.462;11.000;2023-02-28T02:03:54;2.22;;;2.03;;
37288;SDS011;23174;49.462;11.000;2023-02-28T02:06:01;3.03;;;2.75;;
37288;SDS011;23174;49.462;11.000;2023-02-28T02:08:03;2.72;;;2.53;;
37288;SDS011;23174;49.462;11.000;2023-02-28T02:12:23;2.50;;;2.22;;
37288;SDS011;23174;49.462;11.000;2023-02-28T02:14:53;2.88;;;2.63;;
37288;SDS011;23174;49.462;11.000;2023-02-28T02:17:36;3.03;;;2.72;;
37288;SDS011;23174;49.462;11.000;2023-02-28T02:32:09;2.60;;;2.40;;
37288;SDS011;23174;49.462;11.000;2023-02-28T02:34:26;3.50;;;2.67;;
37288;SDS011;23174;49.462;11.000;2023-02-28T02:36:47;3.22;;;2.85;;
37288;SDS011;23174;49.462;11.000;2023-02-28T02:39:02;4.00;;;2.75;;
37288;SDS011;23174;49.462;11.000;2023-02-28T02:41:18;3.10;;;2.78;;
37288;SDS011;23174;49.462;11.000;2023-02-28T02:43:28;3.90;;;2.65;;
37288;SDS011;23174;49.462;11.000;2023-02-28T02:45:45;2.85;;;2.47;;
37288;SDS011;23174;49.462;11.000;2023-02-28T02:47:49;2.80;;;2.60;;
37288;SDS011;23174;49.462;11.000;2023-02-28T02:49:55;4.38;;;3.20;;
37288;SDS011;23174;49.462;11.000;2023-02-28T02:52:02;2.40;;;2.20;;
37288;SDS011;23174;49.462;11.000;2023-02-28T02:54:08;3.45;;;2.80;;
37288;SDS011;23174;49.462;11.000;2023-02-28T02:56:17;3.05;;;2.40;;
37288;SDS011;23174;49.462;11.000;2023-02-28T02:58:29;3.13;;;2.42;;
37288;SDS011;23174;49.462;11.000;2023-02-28T03:00:37;3.17;;;2.70;;
37288;SDS011;23174;49.462;11.000;2023-02-28T03:02:46;3.30;;;3.00;;
37288;SDS011;23174;49.462;11.000;2023-02-28T03:04:52;2.80;;;2.60;;
37288;SDS011;23174;49.462;11.000;2023-02-28T03:07:00;3.22;;;2.92;;
37288;SDS011;23174;49.462;11.000;2023-02-28T03:09:01;3.13;;;2.78;;
37288;SDS011;23174;49.462;11.000;2023-02-28T03:11:03;3.85;;;2.97;;
37288;SDS011;23174;49.462;11.000;2023-02-28T03:15:26;3.03;;;2.78;;
37288;SDS011;23174;49.462;11.000;2023-02-28T03:17:47;3.00;;;2.70;;
37288;SDS011;23174;49.462;11.000;2023-02-28T03:20:18;3.20;;;2.90;;
37288;SDS011;23174;49.462;11.000;2023-02-28T03:25:07;3.40;;;3.10;;
37288;SDS011;23174;49.462;11.000;2023-02-28T03:27:27;3.08;;;2.78;;
37288;SDS011;23174;49.462;11.000;2023-02-28T03:34:19;3.67;;;2.85;;
37288;SDS011;23174;49.462;11.000;2023-02-28T03:36:28;3.42;;;3.13;;
37288;SDS011;23174;49.462;11.000;2023-02-28T03:38:35;3.42;;;3.13;;
37288;SDS011;23174;49.462;11.000;2023-02-28T03:40:45;3.65;;;2.88;;
37288;SDS011;23174;49.462;11.000;2023-02-28T03:42:51;2.92;;;2.72;;
37288;SDS011;23174;49.462;11.000;2023-02-28T03:44:59;2.92;;;2.72;;
37288;SDS011;23174;49.462;11.000;2023-02-28T03:47:19;4.32;;;3.60;;
37288;SDS011;23174;49.462;11.000;2023-02-28T03:49:27;3.60;;;3.30;;
37288;SDS011;23174;49.462;11.000;2023-02-28T03:51:32;3.38;;;3.08;;
37288;SDS011;23174;49.462;11.000;2023-02-28T03:53:42;3.72;;;3.30;;
37288;SDS011;23174;49.462;11.000;2023-02-28T03:55:48;2.97;;;2.75;;
37288;SDS011;23174;49.462;11.000;2023-02-28T03:57:57;3.25;;;2.95;;
37288;SDS011;23174;49.462;11.000;2023-02-28T04:00:15;4.47;;;3.45;;
37288;SDS011;23174;49.462;11.000;2023-02-28T04:02:19;4.15;;;3.38;;
37288;SDS011;23174;49.462;11.000;2023-02-28T04:04:20;3.33;;;3.03;;
37288;SDS011;23174;49.462;11.000;2023-02-28T04:06:22;3.40;;;3.10;;
37288;SDS011;23174;49.462;11.000;2023-02-28T04:08:23;3.53;;;3.17;;
37288;SDS011;23174;49.462;11.000;2023-02-28T04:10:26;3.53;;;3.22;;
37288;SDS011;23174;49.462;11.000;2023-02-28T04:12:26;3.70;;;3.40;;
37288;SDS011;23174;49.462;11.000;2023-02-28T04:14:27;4.13;;;3.05;;
37288;SDS011;23174;49.462;11.000;2023-02-28T04:16:28;4.25;;;3.53;;
37288;SDS011;23174;49.462;11.000;2023-02-28T04:18:29;6.80;;;3.80;;
37288;SDS011;23174;49.462;11.000;2023-02-28T04:20:30;3.42;;;3.13;;
37288;SDS011;23174;49.462;11.000;2023-02-28T04:22:30;3.78;;;3.35;;
37288;SDS011;23174;49.462;11.000;2023-02-28T04:24:31;3.45;;;3.15;;
37288;SDS011;23174;49.462;11.000;2023-02-28T04:26:35;4.47;;;3.33;;
37288;SDS011;23174;49.462;11.000;2023-02-28T04:28:36;4.00;;;3.55;;
37288;SDS011;23174;49.462;11.000;2023-02-28T04:30:37;3.85;;;3.50;;
37288;SDS011;23174;49.462;11.000;2023-02-28T04:32:39;3.70;;;3.40;;
37288;SDS011;23174;49.462;11.000;2023-02-28T04:34:39;3.72;;;3.05;;
37288;SDS011;23174;49.462;11.000;2023-02-28T04:36:40;3.88;;;3.17;;
37288;SDS011;23174;49.462;11.000;2023-02-28T04:38:40;4.57;;;3.35;;
37288;SDS011;23174;49.462;11.000;2023-02-28T04:40:41;3.38;;;3.08;;
37288;SDS011;23174;49.462;11.000;2023-02-28T04:42:41;3.67;;;3.30;;
37288;SDS011;23174;49.462;11.000;2023-02-28T04:44:45;4.05;;;3.45;;
37288;SDS011;23174;49.462;11.000;2023-02-28T04:46:47;3.40;;;3.20;;
37288;SDS011;23174;49.462;11.000;2023-02-28T04:48:49;3.60;;;3.40;;
37288;SDS011;23174;49.462;11.000;2023-02-28T04:50:50;3.53;;;3.22;;
37288;SDS011;23174;49.462;11.000;2023-02-28T04:52:50;3.35;;;3.08;;
37288;SDS011;23174;49.462;11.000;2023-02-28T04:54:51;3.80;;;3.40;;
37288;SDS011;23174;49.462;11.000;2023-02-28T04:56:51;3.28;;;2.97;;
37288;SDS011;23174;49.462;11.000;2023-02-28T04:58:52;3.33;;;3.05;;
37288;SDS011;23174;49.462;11.000;2023-02-28T05:00:53;3.25;;;2.95;;
37288;SDS011;23174;49.462;11.000;2023-02-28T05:02:54;3.50;;;3.20;;
37288;SDS011;23174;49.462;11.000;2023-02-28T05:04:54;4.18;;;3.78;;
37288;SDS011;23174;49.462;11.000;2023-02-28T05:06:55;4.00;;;3.60;;
37288;SDS011;23174;49.462;11.000;2023-02-28T05:08:55;3.55;;;3.15;;
37288;SDS011;23174;49.462;11.000;2023-02-28T05:10:56;3.70;;;3.40;;
37288;SDS011;23174;49.462;11.000;2023-02-28T05:12:57;4.03;;;3.22;;
37288;SDS011;23174;49.462;11.000;2023-02-28T05:14:58;5.03;;;3.58;;
37288;SDS011;23174;49.462;11.000;2023-02-28T05:16:58;3.75;;;3.45;;
37288;SDS011;23174;49.462;11.000;2023-02-28T05:18:59;3.70;;;3.30;;
37288;SDS011;23174;49.462;11.000;2023-02-28T05:21:00;3.40;;;3.10;;
37288;SDS011;23174;49.462;11.000;2023-02-28T05:23:03;5.50;;;3.80;;
37288;SDS011;23174;49.462;11.000;2023-02-28T05:25:04;4.32;;;3.85;;
37288;SDS011;23174;49.462;11.000;2023-02-28T05:27:05;3.85;;;3.17;;
37288;SDS011;23174;49.462;11.000;2023-02-28T05:29:06;3.75;;;3.40;;
37288;SDS011;23174;49.462;11.000;2023-02-28T05:31:07;4.60;;;3.47;;
37288;SDS011;23174;49.462;11.000;2023-02-28T05:33:11;3.35;;;3.05;;
37288;SDS011;23174;49.462;11.000;2023-02-28T05:35:12;3.78;;;3.47;;
37288;SDS011;23174;49.462;11.000;2023-02-28T05:37:13;4.18;;;3.70;;
37288;SDS011;23174;49.462;11.000;2023-02-28T05:39:15;3.80;;;3.50;;
37288;SDS011;23174;49.462;11.000;2023-02-28T05:41:16;4.13;;;3.72;;
37288;SDS011;23174;49.462;11.000;2023-02-28T05:43:19;4.50;;;3.67;;
37288;SDS011;23174;49.462;11.000;2023-02-28T05:45:19;3.88;;;3.00;;
37288;SDS011;23174;49.462;11.000;2023-02-28T05:47:20;4.03;;;3.70;;
37288;SDS011;23174;49.462;11.000;2023-02-28T05:49:21;3.47;;;3.17;;
37288;SDS011;23174;49.462;11.000;2023-02-28T05:51:22;4.13;;;3.72;;
37288;SDS011;23174;49.462;11.000;2023-02-28T05:53:22;3.67;;;3.38;;
37288;SDS011;23174;49.462;11.000;2023-02-28T05:55:23;4.28;;;3.88;;
37288;SDS011;23174;49.462;11.000;2023-02-28T05:57:23;4.30;;;3.90;;
37288;SDS011;23174;49.462;11.000;2023-02-28T05:59:24;5.10;;;3.38;;
37288;SDS011;23174;49.462;11.000;2023-02-28T06:01:31;5.82;;;4.10;;
37288;SDS011;23174;49.462;11.000;2023-02-28T06:03:39;7.60;;;3.78;;
37288;SDS011;23174;49.462;11.000;2023-02-28T06:05:40;4.55;;;3.67;;
37288;SDS011;23174;49.462;11.000;2023-02-28T06:07:41;4.10;;;3.70;;
37288;SDS011;23174;49.462;11.000;2023-02-28T06:09:41;3.70;;;3.47;;
37288;SDS011;23174;49.462;11.000;2023-02-28T06:11:42;4.18;;;3.40;;
37288;SDS011;23174;49.462;11.000;2023-02-28T06:13:43;5.70;;;4.32;;
37288;SDS011;23174;49.462;11.000;2023-02-28T06:15:43;3.80;;;3.50;;
37288;SDS011;23174;49.462;11.000;2023-02-28T06:17:44;3.47;;;3.17;;
37288;SDS011;23174;49.462;11.000;2023-02-28T06:19:45;4.07;;;3.78;;
37288;SDS011;23174;49.462;11.000;2023-02-28T06:21:45;4.47;;;3.95;;
37288;SDS011;23174;49.462;11.000;2023-02-28T06:23:50;4.55;;;4.03;;
37288;SDS011;23174;49.462;11.000;2023-02-28T06:25:51;4.18;;;3.78;;
37288;SDS011;23174;49.462;11.000;2023-02-28T06:27:53;4.35;;;3.75;;
37288;SDS011;23174;49.462;11.000;2023-02-28T06:29:55;4.70;;;4.07;;
37288;SDS011;23174;49.462;11.000;2023-02-28T06:31:55;3.63;;;3.33;;
37288;SDS011;23174;49.462;11.000;2023-02-28T06:33:56;5.10;;;4.60;;
37288;SDS011;23174;49.462;11.000;2023-02-28T06:35:57;4.10;;;3.70;;
37288;SDS011;23174;49.462;11.000;2023-02-28T06:37:57;5.00;;;4.18;;
37288;SDS011;23174;49.462;11.000;2023-02-28T06:39:58;5.53;;;4.07;;
37288;SDS011;23174;49.462;11.000;2023-02-28T06:41:59;5.57;;;4.40;;
37288;SDS011;23174;49.462;11.000;2023-02-28T06:43:59;4.68;;;4.28;;
37288;SDS011;23174;49.462;11.000;2023-02-28T06:46:00;4.68;;;3.92;;
37288;SDS011;23174;49.462;11.000;2023-02-28T06:48:03;4.93;;;4.30;;
37288;SDS011;23174;49.462;11.000;2023-02-28T06:50:04;6.53;;;4.15;;
37288;SDS011;23174;49.462;11.000;2023-02-28T06:52:05;4.85;;;4.40;;
37288;SDS011;23174;49.462;11.000;2023-02-28T06:54:06;5.00;;;3.97;;
37288;SDS011;23174;49.462;11.000;2023-02-28T06:56:10;4.80;;;4.40;;
37288;SDS011;23174;49.462;11.000;2023-02-28T06:58:12;4.68;;;4.03;;
37288;SDS011;23174;49.462;11.000;2023-02-28T07:00:15;6.10;;;4.25;;
37288;SDS011;23174;49.462;11.000;2023-02-28T07:02:16;5.35;;;4.40;;
37288;SDS011;23174;49.462;11.000;2023-02-28T07:04:16;4.65;;;4.18;;
37288;SDS011;23174;49.462;11.000;2023-02-28T07:06:23;5.50;;;4.03;;
37288;SDS011;23174;49.462;11.000;2023-02-28T07:08:24;4.85;;;4.07;;
37288;SDS011;23174;49.462;11.000;2023-02-28T07:10:26;6.32;;;4.53;;
37288;SDS011;23174;49.462;11.000;2023-02-28T07:12:27;4.07;;;3.78;;
37288;SDS011;23174;49.462;11.000;2023-02-28T07:14:27;4.57;;;4.18;;
37288;SDS011;23174;49.462;11.000;2023-02-28T07:16:28;4.22;;;3.83;;
37288;SDS011;23174;49.462;11.000;2023-02-28T07:18:29;3.97;;;3.67;;
37288;SDS011;23174;49.462;11.000;2023-02-28T07:20:30;4.50;;;4.05;;
37288;SDS011;23174;49.462;11.000;2023-02-28T07:22:30;4.50;;;4.10;;
37288;SDS011;23174;49.462;11.000;2023-02-28T07:24:31;4.78;;;4.38;;
37288;SDS011;23174;49.462;11.000;2023-02-28T07:26:32;5.05;;;4.20;;
37288;SDS011;23174;49.462;11.000;2023-02-28T07:28:34;4.80;;;4.28;;
37288;SDS011;23174;49.462;11.000;2023-02-28T07:30:34;4.40;;;4.10;;
37288;SDS011;23174;49.462;11.000;2023-02-28T07:32:35;5.65;;;4.65;;
37288;SDS011;23174;49.462;11.000;2023-02-28T07:34:37;5.97;;;4.45;;
37288;SDS011;23174;49.462;11.000;2023-02-28T07:36:38;5.72;;;4.55;;
37288;SDS011;23174;49.462;11.000;2023-02-28T07:38:39;5.18;;;4.75;;
37288;SDS011;23174;49.462;11.000;2023-02-28T07:40:39;4.47;;;4.10;;
37288;SDS011;23174;49.462;11.000;2023-02-28T07:42:40;9.20;;;4.40;;
37288;SDS011;23174;49.462;11.000;2023-02-28T07:44:41;4.53;;;4.13;;
37288;SDS011;23174;49.462;11.000;2023-02-28T07:46:42;6.55;;;4.97;;
37288;SDS011;23174;49.462;11.000;2023-02-28T07:48:43;6.47;;;4.20;;
37288;SDS011;23174;49.462;11.000;2023-02-28T07:50:44;6.55;;;4.72;;
37288;SDS011;23174;49.462;11.000;2023-02-28T07:52:48;4.90;;;4.40;;
37288;SDS011;23174;49.462;11.000;2023-02-28T07:54:48;5.05;;;4.50;;
37288;SDS011;23174;49.462;11.000;2023-02-28T07:56:49;6.10;;;4.82;;
37288;SDS011;23174;49.462;11.000;2023-02-28T07:58:50;6.85;;;5.18;;
37288;SDS011;23174;49.462;11.000;2023-02-28T08:00:51;6.63;;;4.80;;
37288;SDS011;23174;49.462;11.000;2023-02-28T08:02:51;6.88;;;5.63;;
37288;SDS011;23174;49.462;11.000;2023-02-28T08:04:52;4.63;;;4.22;;
37288;SDS011;23174;49.462;11.000;2023-02-28T08:06:52;5.78;;;4.78;;
37288;SDS011;23174;49.462;11.000;2023-02-28T08:08:53;5.90;;;5.22;;
37288;SDS011;23174;49.462;11.000;2023-02-28T08:10:57;5.38;;;4.88;;
37288;SDS011;23174;49.462;11.000;2023-02-28T08:12:59;6.38;;;5.78;;
37288;SDS011;23174;49.462;11.000;2023-02-28T08:15:00;5.85;;;5.30;;
37288;SDS011;23174;49.462;11.000;2023-02-28T08:17:00;5.50;;;4.90;;
37288;SDS011;23174;49.462;11.000;2023-02-28T08:19:01;6.28;;;5.68;;
37288;SDS011;23174;49.462;11.000;2023-02-28T08:21:06;5.50;;;5.00;;
37288;SDS011;23174;49.462;11.000;2023-02-28T08:23:07;6.57;;;5.20;;
37288;SDS011;23174;49.462;11.000;2023-02-28T08:25:08;7.88;;;5.32;;
37288;SDS011;23174;49.462;11.000;2023-02-28T08:27:09;5.18;;;4.70;;
37288;SDS011;23174;49.462;11.000;2023-02-28T08:29:10;5.72;;;5.10;;
37288;SDS011;23174;49.462;11.000;2023-02-28T08:31:11;5.50;;;5.00;;
37288;SDS011;23174;49.462;11.000;2023-02-28T08:33:14;5.78;;;5.22;;
37288;SDS011;23174;49.462;11.000;2023-02-28T08:35:14;8.10;;;5.65;;
37288;SDS011;23174;49.462;11.000;2023-02-28T08:37:15;6.07;;;5.47;;
37288;SDS011;23174;49.462;11.000;2023-02-28T08:39:16;6.60;;;5.35;;
37288;SDS011;23174;49.462;11.000;2023-02-28T08:41:16;5.13;;;4.72;;
37288;SDS011;23174;49.462;11.000;2023-02-28T08:43:17;5.63;;;4.93;;
37288;SDS011;23174;49.462;11.000;2023-02-28T08:45:18;5.28;;;4.70;;
37288;SDS011;23174;49.462;11.000;2023-02-28T08:47:18;7.45;;;5.75;;
37288;SDS011;23174;49.462;11.000;2023-02-28T08:49:19;8.23;;;5.30;;
37288;SDS011;23174;49.462;11.000;2023-02-28T08:51:20;5.85;;;5.05;;
37288;SDS011;23174;49.462;11.000;2023-02-28T08:53:26;5.40;;;4.90;;
37288;SDS011;23174;49.462;11.000;2023-02-28T08:55:26;9.13;;;5.32;;
37288;SDS011;23174;49.462;11.000;2023-02-28T08:57:27;7.43;;;5.43;;
37288;SDS011;23174;49.462;11.000;2023-02-28T08:59:28;5.80;;;5.20;;
37288;SDS011;23174;49.462;11.000;2023-02-28T09:01:29;5.57;;;4.47;;
37288;SDS011;23174;49.462;11.000;2023-02-28T09:03:31;6.07;;;5.30;;
37288;SDS011;23174;49.462;11.000;2023-02-28T09:05:31;9.13;;;5.05;;
37288;SDS011;23174;49.462;11.000;2023-02-28T09:07:32;5.55;;;5.05;;
37288;SDS011;23174;49.462;11.000;2023-02-28T09:09:33;6.75;;;5.70;;
37288;SDS011;23174;49.462;11.000;2023-02-28T09:11:34;5.40;;;4.90;;
37288;SDS011;23174;49.462;11.000;2023-02-28T09:13:35;7.10;;;5.30;;
37288;SDS011;23174;49.462;11.000;2023-02-28T09:15:38;6.65;;;5.45;;
37288;SDS011;23174;49.462;11.000;2023-02-28T09:17:39;9.95;;;5.57;;
37288;SDS011;23174;49.462;11.000;2023-02-28T09:19:39;8.57;;;5.25;;
37288;SDS011;23174;49.462;11.000;2023-02-28T09:21:40;6.50;;;5.80;;
37288;SDS011;23174;49.462;11.000;2023-02-28T09:23:42;8.00;;;5.22;;
37288;SDS011;23174;49.462;11.000;2023-02-28T09:25:53;5.53;;;5.03;;
37288;SDS011;23174;49.462;11.000;2023-02-28T09:27:54;7.75;;;5.55;;
37288;SDS011;23174;49.462;11.000;2023-02-28T09:29:55;5.07;;;4.70;;
37288;SDS011;23174;49.462;11.000;2023-02-28T09:31:55;6.65;;;5.95;;
37288;SDS011;23174;49.462;11.000;2023-02-28T09:33:58;7.18;;;5.75;;
37288;SDS011;23174;49.462;11.000;2023-02-28T09:36:00;8.55;;;5.95;;
37288;SDS011;23174;49.462;11.000;2023-02-28T09:38:06;8.38;;;5.45;;
37288;SDS011;23174;49.462;11.000;2023-02-28T09:40:08;5.75;;;5.28;;
37288;SDS011;23174;49.462;11.000;2023-02-28T09:42:24;6.63;;;5.13;;
37288;SDS011;23174;49.462;11.000;2023-02-28T09:44:35;12.38;;;5.55;;
37288;SDS011;23174;49.462;11.000;2023-02-28T09:46:40;7.57;;;5.80;;
37288;SDS011;23174;49.462;11.000;2023-02-28T09:48:45;9.48;;;5.75;;
37288;SDS011;23174;49.462;11.000;2023-02-28T09:50:49;6.80;;;5.82;;
37288;SDS011;23174;49.462;11.000;2023-02-28T09:53:02;5.80;;;5.20;;
37288;SDS011;23174;49.462;11.000;2023-02-28T09:57:59;5.47;;;4.88;;
37288;SDS011;23174;49.462;11.000;2023-02-28T10:00:10;6.55;;;5.63;;
37288;SDS011;23174;49.462;11.000;2023-02-28T10:04:39;6.88;;;6.13;;
37288;SDS011;23174;49.462;11.000;2023-02-28T10:06:46;7.70;;;5.60;;
37288;SDS011;23174;49.462;11.000;2023-02-28T10:09:24;4.95;;;4.25;;
37288;SDS011;23174;49.462;11.000;2023-02-28T10:11:27;7.60;;;5.95;;
37288;SDS011;23174;49.462;11.000;2023-02-28T10:13:36;5.70;;;5.18;;
37288;SDS011;23174;49.462;11.000;2023-02-28T10:16:02;6.32;;;5.60;;
37288;SDS011;23174;49.462;11.000;2023-02-28T10:18:10;5.35;;;4.95;;
37288;SDS011;23174;49.462;11.000;2023-02-28T10:20:16;6.65;;;4.88;;
37288;SDS011;23174;49.462;11.000;2023-02-28T10:22:28;6.95;;;5.53;;
37288;SDS011;23174;49.462;11.000;2023-02-28T10:24:43;5.63;;;5.13;;
37288;SDS011;23174;49.462;11.000;2023-02-28T10:26:48;8.27;;;5.15;;
37288;SDS011;23174;49.462;11.000;2023-02-28T10:28:48;6.85;;;5.45;;
37288;SDS011;23174;49.462;11.000;2023-02-28T10:30:53;5.60;;;5.10;;
37288;SDS011;23174;49.462;11.000;2023-02-28T10:32:54;5.20;;;4.75;;
37288;SDS011;23174;49.462;11.000;2023-02-28T10:34:57;5.20;;;4.78;;
37288;SDS011;23174;49.462;11.000;2023-02-28T10:37:18;5.47;;;4.97;;
37288;SDS011;23174;49.462;11.000;2023-02-28T10:41:41;5.57;;;4.95;;
37288;SDS011;23174;49.462;11.000;2023-02-28T10:43:43;4.88;;;4.47;;
37288;SDS011;23174;49.462;11.000;2023-02-28T10:52:34;8.70;;;5.25;;
37288;SDS011;23174;49.462;11.000;2023-02-28T10:54:38;5.25;;;4.82;;
37288;SDS011;23174;49.462;11.000;2023-02-28T10:56:41;8.05;;;4.90;;
37288;SDS011;23174;49.462;11.000;2023-02-28T10:58:54;5.80;;;5.30;;
37288;SDS011;23174;49.462;11.000;2023-02-28T11:00:58;5.93;;;4.85;;
37288;SDS011;23174;49.462;11.000;2023-02-28T11:02:59;5.63;;;4.88;;
37288;SDS011;23174;49.462;11.000;2023-02-28T11:05:00;5.75;;;4.78;;
37288;SDS011;23174;49.462;11.000;2023-02-28T11:07:01;6.03;;;5.03;;
37288;SDS011;23174;49.462;11.000;2023-02-28T11:09:25;5.63;;;4.88;;
37288;SDS011;23174;49.462;11.000;2023-02-28T11:11:30;5.70;;;5.20;;
37288;SDS011;23174;49.462;11.000;2023-02-28T11:13:42;5.55;;;5.05;;
37288;SDS011;23174;49.462;11.000;2023-02-28T11:15:52;5.35;;;4.85;;
37288;SDS011;23174;49.462;11.000;2023-02-28T11:17:59;1.10;;;1.00;;
37288;SDS011;23174;49.462;11.000;2023-02-28T11:20:04;2.85;;;1.42;;
37288;SDS011;23174;49.462;11.000;2023-02-28T11:22:09;7.05;;;4.60;;
37288;SDS011;23174;49.462;11.000;2023-02-28T11:26:35;6.50;;;5.18;;
37288;SDS011;23174;49.462;11.000;2023-02-28T11:28:41;6.05;;;4.68;;
37288;SDS011;23174;49.462;11.000;2023-02-28T11:30:42;6.57;;;5.60;;
37288;SDS011;23174;49.462;11.000;2023-02-28T11:32:48;5.00;;;4.60;;
37288;SDS011;23174;49.462;11.000;2023-02-28T11:37:19;5.72;;;4.88;;
37288;SDS011;23174;49.462;11.000;2023-02-28T11:39:20;5.38;;;4.80;;
37288;SDS011;23174;49.462;11.000;2023-02-28T11:41:37;8.90;;;4.70;;
37288;SDS011;23174;49.462;11.000;2023-02-28T11:46:31;5.55;;;5.05;;
37288;SDS011;23174;49.462;11.000;2023-02-28T11:51:45;6.57;;;4.32;;
37288;SDS011;23174;49.462;11.000;2023-02-28T11:53:37;5.30;;;4.82;;
37288;SDS011;23174;49.462;11.000;2023-02-28T11:56:09;6.90;;;5.07;;
37288;SDS011;23174;49.462;11.000;2023-02-28T12:00:50;6.00;;;5.35;;
37288;SDS011;23174;49.462;11.000;2023-02-28T12:05:39;6.15;;;5.55;;
37288;SDS011;23174;49.462;11.000;2023-02-28T12:10:22;6.80;;;4.72;;
37288;SDS011;23174;49.462;11.000;2023-02-28T12:19:48;4.85;;;4.45;;
37288;SDS011;23174;49.462;11.000;2023-02-28T12:22:37;7.20;;;5.30;;
37288;SDS011;23174;49.462;11.000;2023-02-28T12:24:54;5.25;;;4.55;;
37288;SDS011;23174;49.462;11.000;2023-02-28T12:27:20;4.63;;;4.22;;
37288;SDS011;23174;49.462;11.000;2023-02-28T12:29:25;6.95;;;5.22;;
37288;SDS011;23174;49.462;11.000;2023-02-28T12:31:36;6.60;;;5.28;;
37288;SDS011;23174;49.462;11.000;2023-02-28T12:33:46;4.78;;;4.35;;
37288;SDS011;23174;49.462;11.000;2023-02-28T12:35:55;5.78;;;4.80;;
37288;SDS011;23174;49.462;11.000;2023-02-28T12:37:59;5.70;;;4.93;;
37288;SDS011;23174;49.462;11.000;2023-02-28T12:40:09;5.65;;;4.93;;
37288;SDS011;23174;49.462;11.000;2023-02-28T12:42:28;7.88;;;5.82;;
37288;SDS011;23174;49.462;11.000;2023-02-28T12:46:43;7.13;;;5.18;;
37288;SDS011;23174;49.462;11.000;2023-02-28T12:48:47;5.60;;;4.90;;
37288;SDS011;23174;49.462;11.000;2023-02-28T12:50:53;7.88;;;5.43;;
37288;SDS011;23174;49.462;11.000;2023-02-28T12:53:15;6.88;;;5.05;;
37288;SDS011;23174;49.462;11.000;2023-02-28T12:59:49;6.15;;;5.28;;
37288;SDS011;23174;49.462;11.000;2023-02-28T13:02:12;5.20;;;4.70;;
37288;SDS011;23174;49.462;11.000;2023-02-28T13:04:47;7.68;;;4.93;;
37288;SDS011;23174;49.462;11.000;2023-02-28T13:09:26;6.88;;;5.10;;
37288;SDS011;23174;49.462;11.000;2023-02-28T13:11:45;5.50;;;4.97;;
37288;SDS011;23174;49.462;11.000;2023-02-28T13:13:47;5.38;;;4.85;;
37288;SDS011;23174;49.462;11.000;2023-02-28T13:16:02;8.10;;;5.32;;
37288;SDS011;23174;49.462;11.000;2023-02-28T13:18:05;5.95;;;5.35;;
37288;SDS011;23174;49.462;11.000;2023-02-28T13:20:46;7.60;;;5.90;;
37288;SDS011;23174;49.462;11.000;2023-02-28T13:22:48;12.00;;;6.22;;
37288;SDS011;23174;49.462;11.000;2023-02-28T13:24:53;6.90;;;5.65;;
37288;SDS011;23174;49.462;11.000;2023-02-28T13:31:10;5.90;;;5.30;;
37288;SDS011;23174;49.462;11.000;2023-02-28T13:33:20;7.20;;;5.70;;
37288;SDS011;23174;49.462;11.000;2023-02-28T13:35:36;7.70;;;6.05;;
37288;SDS011;23174;49.462;11.000;2023-02-28T13:37:43;6.25;;;5.60;;
37288;SDS011;23174;49.462;11.000;2023-02-28T13:39:45;9.10;;;6.03;;